createdAt,value
2023-04-22T00:00:14.931Z,6.70
2023-04-22T00:02:43.747Z,6.70
2023-04-22T00:05:15.163Z,6.70
2023-04-22T00:07:45.727Z,6.70
2023-04-22T00:10:15.706Z,6.80
2023-04-22T00:12:44.232Z,6.80
2023-04-22T00:15:13.350Z,6.70
2023-04-22T00:17:42.787Z,6.70
2023-04-22T00:20:12.804Z,6.60
2023-04-22T00:22:41.241Z,6.60
2023-04-22T00:25:10.700Z,6.50
2023-04-22T00:27:40.600Z,6.50
2023-04-22T00:30:10.956Z,6.50
2023-04-22T00:32:39.802Z,6.50
2023-04-22T00:35:09.658Z,6.60
2023-04-22T00:37:38.655Z,6.60
2023-04-22T00:40:09.157Z,6.60
2023-04-22T00:42:40.573Z,6.50
2023-04-22T00:45:13.699Z,6.40
2023-04-22T00:47:43.379Z,6.40
2023-04-22T00:50:12.411Z,6.30
2023-04-22T00:52:40.872Z,6.40
2023-04-22T00:55:10.692Z,6.30
2023-04-22T00:57:41.474Z,6.30
2023-04-22T01:00:11.726Z,6.30
2023-04-22T01:02:40.543Z,6.30
2023-04-22T01:05:10.528Z,6.30
2023-04-22T01:07:39.081Z,6.30
2023-04-22T01:10:09.222Z,6.30
2023-04-22T01:12:37.782Z,6.20
2023-04-22T01:15:09.742Z,6.20
2023-04-22T01:17:38.607Z,6.20
2023-04-22T01:20:10.447Z,6.20
2023-04-22T01:22:45.561Z,6.20
2023-04-22T01:25:15.409Z,6.10
2023-04-22T01:27:44.699Z,6.00
2023-04-22T01:30:18.803Z,6.00
2023-04-22T01:32:47.971Z,5.90
2023-04-22T01:35:16.464Z,5.90
2023-04-22T01:37:45.676Z,5.80
2023-04-22T01:40:19.791Z,5.70
2023-04-22T01:42:48.464Z,5.60
2023-04-22T01:45:17.641Z,5.50
2023-04-22T01:48:15.258Z,5.50
2023-04-22T01:51:07.242Z,5.50
2023-04-22T01:53:37.114Z,5.40
2023-04-22T01:56:20.179Z,5.50
2023-04-22T01:58:49.112Z,5.40
2023-04-22T02:01:17.700Z,5.50
2023-04-22T02:03:46.367Z,5.50
2023-04-22T02:06:14.976Z,5.50
2023-04-22T02:08:43.490Z,5.50
2023-04-22T02:11:12.019Z,5.50
2023-04-22T02:13:42.913Z,5.50
2023-04-22T02:16:11.747Z,5.60
2023-04-22T02:18:40.237Z,5.60
2023-04-22T02:21:08.744Z,5.60
2023-04-22T02:23:38.583Z,5.60
2023-04-22T02:26:09.010Z,5.60
2023-04-22T02:28:37.472Z,5.60
2023-04-22T02:31:07.528Z,5.70
2023-04-22T02:33:36.458Z,5.70
2023-04-22T02:36:05.328Z,5.70
2023-04-22T02:38:33.826Z,5.70
2023-04-22T02:41:40.875Z,5.70
2023-04-22T02:44:09.333Z,5.80
2023-04-22T02:46:39.303Z,5.70
2023-04-22T02:49:07.822Z,5.70
2023-04-22T02:51:36.316Z,5.60
2023-04-22T02:54:04.919Z,5.70
2023-04-22T02:56:33.440Z,5.60
2023-04-22T02:59:01.911Z,5.60
2023-04-22T03:01:30.972Z,5.60
2023-04-22T03:04:01.134Z,5.50
2023-04-22T03:06:29.772Z,5.50
2023-04-22T03:08:58.272Z,5.40
2023-04-22T03:11:27.165Z,5.40
2023-04-22T03:13:55.601Z,5.40
2023-04-22T03:16:25.611Z,5.40
2023-04-22T03:18:54.026Z,5.40
2023-04-22T03:21:23.853Z,5.40
2023-04-22T03:23:52.402Z,5.40
2023-04-22T03:26:20.871Z,5.40
2023-04-22T03:28:57.996Z,5.40
2023-04-22T03:31:26.678Z,5.40
2023-04-22T03:33:55.113Z,5.40
2023-04-22T03:36:26.731Z,5.50
2023-04-22T03:38:55.231Z,5.50
2023-04-22T03:41:26.415Z,5.50
2023-04-22T03:44:02.889Z,5.50
2023-04-22T03:46:31.705Z,5.50
2023-04-22T03:49:00.199Z,5.50
2023-04-22T03:51:30.172Z,5.50
2023-04-22T03:53:58.660Z,5.50
2023-04-22T03:56:27.130Z,5.50
2023-04-22T03:58:55.665Z,5.60
2023-04-22T04:01:24.833Z,5.60
2023-04-22T04:03:53.634Z,5.60
2023-04-22T04:06:22.318Z,5.60
2023-04-22T04:08:52.157Z,5.60
2023-04-22T04:11:20.671Z,5.70
2023-04-22T04:13:49.152Z,5.80
2023-04-22T04:16:17.641Z,5.90
2023-04-22T04:18:46.219Z,6.00
2023-04-22T04:21:14.647Z,6.10
2023-04-22T04:23:43.069Z,6.10
2023-04-22T04:26:12.908Z,6.10
2023-04-22T04:28:41.695Z,6.20
2023-04-22T04:31:10.169Z,6.30
2023-04-22T04:33:39.345Z,6.40
2023-04-22T04:36:10.704Z,6.40
2023-04-22T04:38:53.081Z,6.40
2023-04-22T04:44:40.678Z,6.60
2023-04-22T04:47:09.102Z,6.90
2023-04-22T04:49:40.723Z,7.10
2023-04-22T04:52:24.815Z,7.20
2023-04-22T04:54:53.329Z,7.30
2023-04-22T04:57:23.216Z,7.50
2023-04-22T04:59:51.695Z,7.70
2023-04-22T05:02:20.378Z,7.90
2023-04-22T05:04:48.990Z,8.00
2023-04-22T05:07:17.659Z,8.20
2023-04-22T05:09:46.103Z,8.40
2023-04-22T05:12:15.333Z,8.60
2023-04-22T05:14:46.575Z,8.80
2023-04-22T05:17:15.569Z,9.00
2023-04-22T05:19:44.033Z,9.10
2023-04-22T05:22:12.531Z,9.30
2023-04-22T05:24:43.755Z,9.60
2023-04-22T05:27:12.506Z,9.80
2023-04-22T05:29:41.200Z,9.90
2023-04-22T05:32:11.633Z,10.10
2023-04-22T05:34:40.190Z,10.20
2023-04-22T05:37:14.724Z,10.30
2023-04-22T05:39:43.252Z,10.40
2023-04-22T05:42:12.280Z,10.40
2023-04-22T05:44:41.051Z,10.60
2023-04-22T05:47:10.947Z,10.80
2023-04-22T05:49:45.365Z,11.00
2023-04-22T05:52:23.303Z,11.20
2023-04-22T05:54:51.723Z,11.20
2023-04-22T05:57:20.274Z,11.20
2023-04-22T05:59:48.680Z,11.20
2023-04-22T06:02:18.730Z,11.30
2023-04-22T06:04:47.363Z,11.40
2023-04-22T06:07:15.995Z,11.50
2023-04-22T06:09:44.490Z,11.60
2023-04-22T06:12:13.142Z,11.80
2023-04-22T06:14:41.545Z,11.90
2023-04-22T06:17:10.379Z,12.00
2023-04-22T06:19:40.446Z,12.20
2023-04-22T06:22:09.053Z,12.30
2023-04-22T06:24:37.460Z,12.30
2023-04-22T06:27:05.885Z,12.50
2023-04-22T06:29:34.805Z,12.70
2023-04-22T06:32:03.578Z,13.00
2023-04-22T06:34:32.087Z,13.30
2023-04-22T06:37:01.903Z,13.50
2023-04-22T06:39:30.434Z,13.60
2023-04-22T06:41:58.848Z,13.60
2023-04-22T06:44:27.958Z,13.70
2023-04-22T06:46:58.097Z,13.80
2023-04-22T06:49:26.901Z,13.90
2023-04-22T06:51:55.407Z,13.90
2023-04-22T06:54:25.315Z,13.90
2023-04-22T06:56:53.834Z,14.00
2023-04-22T06:59:22.319Z,14.10
2023-04-22T07:01:50.998Z,14.10
2023-04-22T07:04:19.557Z,14.20
2023-04-22T07:06:48.146Z,14.30
2023-04-22T07:09:19.539Z,14.20
2023-04-22T07:11:49.332Z,14.20
2023-04-22T07:14:17.842Z,14.30
2023-04-22T07:16:46.333Z,14.30
2023-04-22T07:19:14.784Z,14.30
2023-04-22T07:21:43.241Z,14.40
2023-04-22T07:24:13.216Z,14.60
2023-04-22T07:26:43.458Z,14.80
2023-04-22T07:29:13.512Z,14.90
2023-04-22T07:31:42.034Z,15.20
2023-04-22T07:34:11.014Z,15.40
2023-04-22T07:36:39.641Z,15.50
2023-04-22T07:39:11.560Z,15.70
2023-04-22T07:41:40.085Z,15.90
2023-04-22T07:44:18.494Z,15.90
2023-04-22T07:46:51.581Z,16.00
2023-04-22T07:49:21.361Z,16.20
2023-04-22T07:51:49.872Z,16.30
2023-04-22T07:54:18.265Z,16.30
2023-04-22T07:56:46.751Z,16.50
2023-04-22T07:59:16.613Z,16.60
2023-04-22T08:02:00.712Z,16.80
2023-04-22T08:04:29.268Z,16.90
2023-04-22T08:06:57.939Z,16.90
2023-04-22T08:09:26.438Z,16.90
2023-04-22T08:11:55.051Z,16.90
2023-04-22T08:14:24.963Z,17.10
2023-04-22T08:16:53.909Z,17.20
2023-04-22T08:19:22.460Z,17.40
2023-04-22T08:21:51.758Z,17.50
2023-04-22T08:24:20.369Z,17.60
2023-04-22T08:26:48.916Z,17.80
2023-04-22T08:29:17.465Z,18.00
2023-04-22T08:31:47.342Z,18.20
2023-04-22T08:34:36.716Z,18.20
2023-04-22T08:37:05.842Z,18.20
2023-04-22T08:39:34.393Z,18.10
2023-04-22T08:42:02.993Z,18.10
2023-04-22T08:44:32.068Z,18.10
2023-04-22T08:47:06.589Z,18.20
2023-04-22T08:49:41.145Z,18.30
2023-04-22T08:52:12.822Z,18.40
2023-04-22T08:54:41.336Z,18.50
2023-04-22T08:57:11.452Z,18.60
2023-04-22T08:59:41.349Z,18.80
2023-04-22T09:02:20.339Z,18.80
2023-04-22T09:04:52.408Z,18.90
2023-04-22T09:07:25.819Z,18.70
2023-04-22T09:09:56.425Z,18.40
2023-04-22T09:12:26.378Z,18.50
2023-04-22T09:14:55.546Z,18.60
2023-04-22T09:17:33.976Z,18.90
2023-04-22T09:20:04.511Z,19.10
2023-04-22T09:22:41.186Z,19.20
2023-04-22T09:25:18.229Z,19.30
2023-04-22T09:27:51.760Z,19.40
2023-04-22T09:30:25.784Z,19.60
2023-04-22T09:32:57.797Z,19.70
2023-04-22T09:35:31.152Z,19.50
2023-04-22T09:38:11.272Z,19.40
2023-04-22T09:40:43.654Z,19.40
2023-04-22T09:43:12.809Z,19.40
2023-04-22T09:45:44.163Z,19.50
2023-04-22T09:48:16.633Z,19.50
2023-04-22T09:50:48.624Z,19.30
2023-04-22T09:53:19.298Z,19.00
2023-04-22T09:55:56.809Z,18.70
2023-04-22T09:58:27.621Z,18.10
2023-04-22T10:01:00.732Z,17.80
2023-04-22T10:03:30.938Z,17.50
2023-04-22T10:05:59.627Z,17.30
2023-04-22T10:08:28.612Z,17.10
2023-04-22T10:10:57.526Z,16.90
2023-04-22T10:13:25.946Z,16.70
2023-04-22T10:15:57.688Z,16.80
2023-04-22T10:18:37.525Z,17.10
2023-04-22T10:21:07.571Z,17.40
2023-04-22T10:23:36.212Z,17.30
2023-04-22T10:26:07.151Z,17.40
2023-04-22T10:28:35.911Z,17.40
2023-04-22T10:31:08.454Z,17.50
2023-04-22T10:33:42.604Z,17.70
2023-04-22T10:36:17.997Z,17.90
2023-04-22T10:39:22.084Z,17.80
2023-04-22T10:41:58.061Z,17.80
2023-04-22T10:44:31.499Z,18.00
2023-04-22T10:47:03.398Z,18.10
2023-04-22T10:49:34.879Z,18.30
2023-04-22T10:52:05.190Z,18.20
2023-04-22T10:55:02.141Z,18.00
2023-04-22T10:57:41.576Z,17.90
2023-04-22T11:00:53.084Z,18.00
2023-04-22T11:03:29.949Z,18.30
2023-04-22T11:06:22.413Z,18.60
2023-04-22T11:09:13.018Z,18.70
2023-04-22T11:11:41.598Z,18.90
2023-04-22T11:14:11.642Z,19.00
2023-04-22T11:16:40.325Z,19.00
2023-04-22T11:19:40.669Z,19.10
2023-04-22T11:22:12.198Z,19.10
2023-04-22T11:24:40.617Z,19.10
2023-04-22T11:27:09.014Z,19.10
2023-04-22T11:29:37.796Z,19.30
2023-04-22T11:32:06.700Z,19.30
2023-04-22T11:34:35.177Z,18.90
2023-04-22T11:37:03.695Z,18.60
2023-04-22T11:39:46.508Z,18.40
2023-04-22T11:42:43.575Z,18.30
2023-04-22T11:45:13.584Z,18.00
2023-04-22T11:47:43.030Z,17.90
2023-04-22T11:50:13.800Z,17.90
2023-04-22T11:52:49.777Z,17.90
2023-04-22T11:55:23.992Z,17.80
2023-04-22T11:58:01.203Z,17.90
2023-04-22T12:00:34.923Z,17.90
2023-04-22T12:03:05.448Z,17.70
2023-04-22T12:05:37.337Z,17.60
2023-04-22T12:08:10.810Z,17.70
2023-04-22T12:10:46.576Z,17.80
2023-04-22T12:13:23.066Z,17.70
2023-04-22T12:15:57.062Z,17.60
2023-04-22T12:18:32.317Z,17.40
2023-04-22T12:21:23.680Z,17.50
2023-04-22T12:23:55.457Z,17.60
2023-04-22T12:26:27.753Z,17.80
2023-04-22T12:29:36.712Z,17.90
2023-04-22T12:32:05.198Z,17.70
2023-04-22T12:34:41.609Z,17.80
2023-04-22T12:37:10.241Z,17.40
2023-04-22T12:39:38.891Z,17.10
2023-04-22T12:42:09.018Z,17.10
2023-04-22T12:44:38.145Z,16.90
2023-04-22T12:47:06.704Z,16.70
2023-04-22T12:49:36.469Z,16.40
2023-04-22T12:52:04.925Z,16.40
2023-04-22T12:54:33.340Z,16.60
2023-04-22T12:57:02.726Z,16.60
2023-04-22T12:59:32.612Z,16.60
2023-04-22T13:02:01.133Z,16.50
2023-04-22T13:04:29.729Z,16.40
2023-04-22T13:06:58.198Z,16.40
2023-04-22T13:09:27.125Z,16.40
2023-04-22T13:11:55.599Z,16.20
2023-04-22T13:14:24.112Z,16.20
2023-04-22T13:16:54.200Z,16.20
2023-04-22T13:19:25.618Z,16.30
2023-04-22T13:21:54.278Z,16.40
2023-04-22T13:24:22.790Z,16.60
2023-04-22T13:26:51.381Z,16.80
2023-04-22T13:29:19.882Z,16.70
2023-04-22T13:31:48.344Z,16.60
2023-04-22T13:34:18.169Z,16.70
2023-04-22T13:36:47.205Z,17.00
2023-04-22T13:39:15.972Z,17.00
2023-04-22T13:41:44.645Z,16.90
2023-04-22T13:44:13.825Z,16.70
2023-04-22T13:46:43.964Z,16.50
2023-04-22T13:49:12.817Z,16.50
2023-04-22T13:51:42.679Z,16.60
2023-04-22T13:54:11.100Z,16.70
2023-04-22T13:56:39.672Z,16.80
2023-04-22T13:59:08.099Z,17.00
2023-04-22T14:01:39.621Z,17.10
2023-04-22T14:04:08.312Z,17.30
2023-04-22T14:06:36.970Z,17.20
2023-04-22T14:09:07.084Z,17.20
2023-04-22T14:11:35.562Z,17.30
2023-04-22T14:14:04.273Z,17.30
2023-04-22T14:16:33.752Z,17.20
2023-04-22T14:19:02.837Z,17.10
2023-04-22T14:21:31.358Z,17.10
2023-04-22T14:23:59.785Z,16.90
2023-04-22T14:26:29.781Z,16.70
2023-04-22T14:28:58.285Z,16.70
2023-04-22T14:31:27.600Z,16.80
2023-04-22T14:33:56.303Z,16.90
2023-04-22T14:36:24.905Z,16.90
2023-04-22T14:38:53.456Z,17.00
2023-04-22T14:41:22.384Z,17.30
2023-04-22T14:43:52.228Z,17.40
2023-04-22T14:46:20.737Z,17.40
2023-04-22T14:48:50.371Z,17.40
2023-04-22T14:51:19.005Z,17.30
2023-04-22T14:53:47.604Z,17.30
2023-04-22T14:56:16.177Z,17.30
2023-04-22T14:58:44.961Z,17.20
2023-04-22T15:01:14.856Z,17.10
2023-04-22T15:03:43.577Z,17.00
2023-04-22T15:06:12.197Z,16.90
2023-04-22T15:08:40.957Z,16.80
2023-04-22T15:11:09.430Z,16.60
2023-04-22T15:13:37.938Z,16.50
2023-04-22T15:16:06.844Z,16.40
2023-04-22T15:18:36.993Z,16.30
2023-04-22T15:21:08.111Z,16.30
2023-04-22T15:23:36.509Z,16.30
2023-04-22T15:26:05.060Z,16.30
2023-04-22T15:28:34.179Z,16.30
2023-04-22T15:31:03.284Z,16.10
2023-04-22T15:33:52.092Z,16.00
2023-04-22T15:36:21.686Z,15.90
2023-04-22T15:38:56.038Z,15.90
2023-04-22T15:41:28.363Z,15.90
2023-04-22T15:43:56.938Z,15.90
2023-04-22T15:46:25.382Z,15.90
2023-04-22T15:48:57.411Z,15.90
2023-04-22T15:51:25.966Z,15.90
2023-04-22T15:53:55.212Z,15.90
2023-04-22T15:56:24.385Z,15.90
2023-04-22T15:58:53.175Z,15.90
2023-04-22T16:01:41.371Z,15.90
2023-04-22T16:04:12.082Z,15.80
2023-04-22T16:06:40.815Z,15.70
2023-04-22T16:09:09.376Z,15.70
2023-04-22T16:11:37.794Z,15.60
2023-04-22T16:14:06.284Z,15.60
2023-04-22T16:16:34.911Z,15.60
2023-04-22T16:19:04.018Z,15.50
2023-04-22T16:21:34.031Z,15.50
2023-04-22T16:24:02.543Z,15.40
2023-04-22T16:26:31.009Z,15.40
2023-04-22T16:28:59.535Z,15.30
2023-04-22T16:31:28.034Z,15.20
2023-04-22T16:33:56.466Z,15.10
2023-04-22T16:36:24.897Z,15.00
2023-04-22T16:39:00.706Z,14.90
2023-04-22T16:41:29.376Z,14.80
2023-04-22T16:43:58.243Z,14.80
2023-04-22T16:46:26.870Z,14.70
2023-04-22T16:48:55.356Z,14.60
2023-04-22T16:51:23.785Z,14.50
2023-04-22T16:53:52.271Z,14.40
2023-04-22T16:56:24.022Z,14.30
2023-04-22T16:59:20.015Z,14.20
2023-04-22T17:01:48.510Z,14.00
2023-04-22T17:04:17.170Z,13.90
2023-04-22T17:06:46.027Z,13.80
2023-04-22T17:09:14.528Z,13.70
2023-04-22T17:11:44.525Z,13.60
2023-04-22T17:14:13.053Z,13.50
2023-04-22T17:16:41.855Z,13.40
2023-04-22T17:19:10.375Z,13.20
2023-04-22T17:21:38.816Z,13.10
2023-04-22T17:24:07.628Z,13.00
2023-04-22T17:26:37.109Z,12.90
2023-04-22T17:29:07.089Z,12.90
2023-04-22T17:31:35.700Z,12.80
2023-04-22T17:34:04.487Z,12.70
2023-04-22T17:36:32.904Z,12.60
2023-04-22T17:39:01.358Z,12.50
2023-04-22T17:41:29.882Z,12.40
2023-04-22T17:43:59.304Z,12.40
2023-04-22T17:46:39.284Z,12.40
2023-04-22T17:49:07.738Z,12.30
2023-04-22T17:51:36.304Z,12.20
2023-04-22T17:54:05.366Z,12.20
2023-04-22T17:56:33.787Z,12.20
2023-04-22T17:59:02.287Z,12.10
2023-04-22T18:01:31.222Z,12.10
2023-04-22T18:04:01.429Z,12.10
2023-04-22T18:06:30.451Z,12.00
2023-04-22T18:08:58.912Z,12.00
2023-04-22T18:11:28.026Z,11.80
2023-04-22T18:13:56.620Z,11.80
2023-04-22T18:16:25.222Z,11.70
2023-04-22T18:18:53.666Z,11.70
2023-04-22T18:21:23.560Z,11.80
2023-04-22T18:23:53.217Z,11.80
2023-04-22T18:26:21.792Z,11.70
2023-04-22T18:28:50.241Z,11.70
2023-04-22T18:31:18.712Z,11.70
2023-04-22T18:33:47.206Z,11.60
2023-04-22T18:36:15.632Z,11.50
2023-04-22T18:38:45.572Z,11.50
2023-04-22T18:41:14.725Z,11.50
2023-04-22T18:43:43.154Z,11.40
2023-04-22T18:46:11.707Z,11.30
2023-04-22T18:48:40.498Z,11.30
2023-04-22T18:51:09.346Z,11.30
2023-04-22T18:53:37.809Z,11.20
2023-04-22T18:56:07.969Z,11.20
2023-04-22T18:58:36.870Z,11.20
2023-04-22T19:01:05.975Z,11.10
2023-04-22T19:03:34.646Z,11.10
2023-04-22T19:06:03.207Z,11.10
2023-04-22T19:08:31.707Z,11.00
2023-04-22T19:11:00.530Z,10.90
2023-04-22T19:13:30.517Z,10.90
2023-04-22T19:16:00.054Z,10.80
2023-04-22T19:18:28.620Z,10.80
2023-04-22T19:20:57.131Z,10.70
2023-04-22T19:23:25.683Z,10.60
2023-04-22T19:25:54.185Z,10.60
2023-04-22T19:28:22.598Z,10.60
2023-04-22T19:30:52.712Z,10.50
2023-04-22T19:33:46.555Z,10.50
2023-04-22T19:36:14.993Z,10.50
2023-04-22T19:38:43.857Z,10.50
2023-04-22T19:41:12.413Z,10.50
2023-04-22T19:43:41.200Z,10.40
2023-04-22T19:46:11.105Z,10.30
2023-04-22T19:48:40.758Z,10.30
2023-04-22T19:51:12.789Z,10.30
2023-04-22T19:53:42.631Z,10.30
2023-04-22T19:56:11.540Z,10.30
2023-04-22T19:58:41.033Z,10.30
2023-04-22T20:01:12.224Z,10.20
2023-04-22T20:03:41.617Z,10.10
2023-04-22T20:06:12.723Z,10.10
2023-04-22T20:08:43.715Z,10.00
2023-04-22T20:11:13.084Z,10.00
2023-04-22T20:13:42.408Z,10.00
2023-04-22T20:16:31.984Z,10.00
2023-04-22T20:19:00.733Z,10.00
2023-04-22T20:21:30.356Z,10.00
2023-04-22T20:23:59.928Z,9.90
2023-04-22T20:26:28.790Z,9.90
2023-04-22T20:28:57.521Z,9.80
2023-04-22T20:31:26.365Z,9.70
2023-04-22T20:33:57.202Z,9.60
2023-04-22T20:36:26.449Z,9.50
2023-04-22T20:39:06.764Z,9.40
2023-04-22T20:41:39.938Z,9.20
2023-04-22T20:44:08.560Z,9.10
2023-04-22T20:46:37.944Z,9.00
2023-04-22T20:49:08.166Z,8.90
2023-04-22T20:51:36.608Z,8.70
2023-04-22T20:54:09.816Z,8.60
2023-04-22T20:56:46.219Z,8.50
2023-04-22T20:59:14.803Z,8.50
2023-04-22T21:01:43.903Z,8.40
2023-04-22T21:04:15.825Z,8.40
2023-04-22T21:07:17.868Z,8.30
2023-04-22T21:09:46.927Z,8.30
2023-04-22T21:12:18.272Z,8.20
2023-04-22T21:14:47.807Z,8.10
2023-04-22T21:17:22.204Z,7.90
2023-04-22T21:19:56.952Z,7.90
2023-04-22T21:22:26.411Z,7.90
2023-04-22T21:24:55.915Z,7.90
2023-04-22T21:27:25.084Z,7.80
2023-04-22T21:29:54.438Z,7.70
2023-04-22T21:32:22.962Z,7.70
2023-04-22T21:34:52.793Z,7.60
2023-04-22T21:37:21.301Z,7.60
2023-04-22T21:39:49.753Z,7.50
2023-04-22T21:42:18.306Z,7.40
2023-04-22T21:44:49.829Z,7.40
2023-04-22T21:47:18.834Z,7.30
2023-04-22T21:49:47.626Z,7.30
2023-04-22T21:52:17.578Z,7.30
2023-04-22T21:54:46.103Z,7.30
2023-04-22T21:57:15.012Z,7.20
2023-04-22T21:59:43.479Z,7.20
2023-04-22T22:02:11.951Z,7.10
2023-04-22T22:04:40.978Z,7.10
2023-04-22T22:07:09.811Z,7.10
2023-04-22T22:09:40.927Z,7.10
2023-04-22T22:12:12.151Z,7.10
2023-04-22T22:14:40.864Z,7.00
2023-04-22T22:17:09.756Z,6.90
2023-04-22T22:20:11.868Z,6.80
2023-04-22T22:22:40.948Z,6.90
2023-04-22T22:25:13.959Z,6.80
2023-04-22T22:27:45.580Z,6.70
2023-04-22T22:30:14.948Z,6.60
2023-04-22T22:32:43.662Z,6.60
2023-04-22T22:35:12.336Z,6.60
2023-04-22T22:37:41.137Z,6.50
2023-04-22T22:40:13.109Z,6.60
2023-04-22T22:42:41.479Z,6.50
2023-04-22T22:45:11.734Z,6.50
2023-04-22T22:47:40.322Z,6.50
2023-04-22T22:50:10.120Z,6.50
2023-04-22T22:52:38.613Z,6.50
2023-04-22T22:55:08.257Z,6.40
2023-04-22T22:57:53.403Z,6.40
2023-04-22T23:00:22.256Z,6.40
2023-04-22T23:03:05.626Z,6.30
2023-04-22T23:05:34.276Z,6.30
2023-04-22T23:08:02.696Z,6.30
2023-04-22T23:10:31.500Z,6.30
2023-04-22T23:13:01.371Z,6.30
2023-04-22T23:15:29.996Z,6.30
2023-04-22T23:17:58.668Z,6.30
2023-04-22T23:20:28.487Z,6.30
2023-04-22T23:22:58.630Z,6.30
2023-04-22T23:25:28.030Z,6.30
2023-04-22T23:27:56.609Z,6.30
2023-04-22T23:30:43.958Z,6.30
2023-04-22T23:33:15.605Z,6.30
2023-04-22T23:35:45.920Z,6.20
2023-04-22T23:38:14.340Z,6.20
2023-04-22T23:40:42.815Z,6.20
2023-04-22T23:43:21.207Z,6.20
2023-04-22T23:45:51.229Z,6.20
2023-04-22T23:48:19.714Z,6.10
2023-04-22T23:51:10.215Z,6.00
2023-04-22T23:53:38.615Z,6.00
2023-04-22T23:56:09.296Z,6.00
2023-04-22T23:58:38.597Z,6.00
